This is the latest recevied weather packets stored in our database for station/object KE3HG-2. If no packets are shown the sender has not sent any weather packets the latest 10 day(s).
| Time | Temp. | Humidity | Pressure | Rain* | Wind** | Luminosity | Snow |
|---|---|---|---|---|---|---|---|
| 1777919264 | 22.22° C | 24% | 757.5 hPa | 0 mm | - | - | - |
| 1777918664 | 22.22° C | 23% | 757.5 hPa | 0 mm | - | - | - |
| 1777917673 | 22.22° C | 25% | 757.5 hPa | 0 mm | - | - | - |
| 1777917074 | 22.22° C | 24% | 757.5 hPa | 0 mm | - | - | - |
| 1777916474 | 21.67° C | 26% | 757.5 hPa | 0 mm | - | - | - |
| 1777915498 | 21.67° C | 25% | 757.5 hPa | 0 mm | - | - | - |
| 1777914898 | 21.67° C | 25% | 757.5 hPa | 0 mm | - | - | - |
| 1777914298 | 21.11° C | 25% | 757.5 hPa | 0 mm | - | - | - |
| 1777913303 | 20.56° C | 26% | 757.5 hPa | 0 mm | - | - | - |
| 1777912704 | 20.56° C | 24% | 757.5 hPa | 0 mm | - | - | - |
| 1777912104 | 20° C | 26% | 757.5 hPa | 0 mm | - | - | - |
| 1777911105 | 20° C | 24% | 757.5 hPa | 0 mm | - | - | - |
| 1777910505 | 20° C | 27% | 757.5 hPa | 0 mm | - | - | - |
| 1777909905 | 20° C | 27% | 757.5 hPa | 0 mm | - | - | - |
| 1777908910 | 19.44° C | 26% | 757.5 hPa | 0 mm | - | - | - |
| 1777908309 | 19.44° C | 24% | 757.5 hPa | 0 mm | - | - | - |
| 1777907710 | 18.89° C | 26% | 757.5 hPa | 0 mm | - | - | - |
| 1777906713 | 18.33° C | 27% | 757.5 hPa | 0 mm | - | - | - |
| 1777906113 | 17.78° C | 31% | 757.5 hPa | 0 mm | - | - | - |
| 1777905513 | 17.78° C | 29% | 757.5 hPa | 0 mm | - | - | - |
| 1777904522 | 17.22° C | 33% | 757.5 hPa | 0 mm | - | - | - |
| 1777903922 | 16.67° C | 33% | 757.5 hPa | 0 mm | - | - | - |
| 1777903322 | 16.67° C | 34% | 757.5 hPa | 0 mm | - | - | - |
| 1777902345 | 15.56° C | 37% | 757.5 hPa | 0 mm | - | - | - |
| 1777901745 | 15.56° C | 38% | 757.5 hPa | 0 mm | - | - | - |
* Rain latest hour (hover to see other rain measurements)
** Current wind speed in m/s (hover to see current wind gust speed)